Station History

Weather Underground - logo

Station Historical Data
Daily Summary for November 20, 2017 Units:  English    Metric   Both
« Previous Day
Next Day »
Daily Weekly Monthly Yearly Custom
  High: Low: Average:
Temperature: 68.6 °F 43.5 °F 55.4 °F
Dew Point: 52.6 °F 41.6 °F 48.3 °F
Humidity: 96 % 50 % 79 %
Wind Speed: 3.5 mph 0.0 mph 0.3 mph
Wind Gust: 3.5 mph - -
Wind:- - South
Pressure: 30.17 in 30.07 in -
Precipitation: 0.00 in    
Historical Graphs
 
 
Tabular Data for November 20, 2017
Time Temperature Dew Point Pressure Wind Wind Speed Wind Gust Humidity Rainfall Rate (Hourly)
00:04 45.3 °F 43.7 °F 30.14 in Calm     94 % 0.00 in
00:14 45.5 °F 44.2 °F 30.13 in Calm     95 % 0.00 in
00:19 45.4 °F 43.8 °F 30.13 in Calm     94 % 0.00 in
00:34 45.1 °F 43.5 °F 30.14 in Calm     94 % 0.00 in
00:44 44.8 °F 43.2 °F 30.13 in Calm     94 % 0.00 in
00:54 44.8 °F 43.2 °F 30.13 in Calm     94 % 0.00 in
01:09 44.8 °F 43.5 °F 30.13 in Calm     95 % 0.00 in
01:14 44.9 °F 43.6 °F 30.13 in Calm     95 % 0.00 in
01:24 45.2 °F 43.9 °F 30.13 in Calm     95 % 0.00 in
01:26 45.2 °F 43.9 °F 30.12 in Calm     95 % 0.00 in
01:31 45.2 °F 43.6 °F 30.12 in Calm     94 % 0.00 in
01:41 45.4 °F 43.8 °F 30.13 in Calm     94 % 0.00 in
01:46 45.4 °F 43.8 °F 30.12 in Calm     94 % 0.00 in
01:51 45.1 °F 43.5 °F 30.12 in SSE 1.2 mph 1.2 mph 94 % 0.00 in
01:56 44.3 °F 42.4 °F 30.12 in Calm     93 % 0.00 in
02:06 43.5 °F 41.6 °F 30.12 in Calm     93 % 0.00 in
02:11 43.5 °F 41.6 °F 30.12 in Calm     93 % 0.00 in
02:16 43.5 °F 41.9 °F 30.12 in Calm     94 % 0.00 in
02:21 43.8 °F 42.2 °F 30.11 in Calm     94 % 0.00 in
02:26 44.2 °F 42.6 °F 30.11 in Calm     94 % 0.00 in
02:31 44.6 °F 43.0 °F 30.10 in Calm     94 % 0.00 in
02:36 44.9 °F 43.3 °F 30.10 in Calm     94 % 0.00 in
02:41 45.3 °F 43.7 °F 30.09 in Calm     94 % 0.00 in
02:46 45.5 °F 43.9 °F 30.09 in Calm     94 % 0.00 in
02:51 46.0 °F 44.6 °F 30.09 in Calm     95 % 0.00 in
02:56 46.4 °F 44.8 °F 30.09 in Calm     94 % 0.00 in
03:01 46.8 °F 45.2 °F 30.09 in Calm     94 % 0.00 in
03:06 47.0 °F 45.4 °F 30.09 in Calm     94 % 0.00 in
03:11 47.1 °F 45.2 °F 30.09 in Calm     93 % 0.00 in
03:16 47.0 °F 45.1 °F 30.09 in Calm     93 % 0.00 in
03:21 47.0 °F 45.1 °F 30.09 in Calm     93 % 0.00 in
03:31 46.7 °F 45.1 °F 30.09 in Calm     94 % 0.00 in
03:36 46.7 °F 45.1 °F 30.08 in Calm     94 % 0.00 in
03:41 46.6 °F 45.0 °F 30.08 in Calm     94 % 0.00 in
03:51 46.7 °F 45.1 °F 30.07 in Calm     94 % 0.00 in
03:56 46.6 °F 45.0 °F 30.07 in Calm     94 % 0.00 in
04:03 46.6 °F 45.0 °F 30.08 in Calm     94 % 0.00 in
04:08 46.4 °F 44.8 °F 30.09 in Calm     94 % 0.00 in
04:13 46.1 °F 44.5 °F 30.09 in Calm     94 % 0.00 in
04:18 45.9 °F 44.3 °F 30.09 in Calm     94 % 0.00 in
04:23 45.7 °F 44.1 °F 30.09 in Calm     94 % 0.00 in
04:53 45.5 °F 43.9 °F 30.10 in Calm     94 % 0.00 in
04:58 45.6 °F 44.0 °F 30.10 in Calm     94 % 0.00 in
05:14 45.8 °F 44.4 °F 30.11 in Calm     95 % 0.00 in
05:19 45.9 °F 44.5 °F 30.11 in Calm     95 % 0.00 in
05:24 46.0 °F 44.6 °F 30.11 in Calm     95 % 0.00 in
05:29 46.2 °F 44.8 °F 30.11 in Calm     95 % 0.00 in
05:34 46.5 °F 45.1 °F 30.11 in Calm     95 % 0.00 in
05:39 46.7 °F 45.3 °F 30.11 in Calm     95 % 0.00 in
05:44 46.8 °F 45.4 °F 30.12 in Calm     95 % 0.00 in
05:54 46.5 °F 44.9 °F 30.12 in Calm     94 % 0.00 in
05:59 46.5 °F 44.9 °F 30.12 in Calm     94 % 0.00 in
06:09 46.3 °F 44.7 °F 30.13 in Calm     94 % 0.00 in
06:19 46.0 °F 44.4 °F 30.12 in Calm     94 % 0.00 in
06:24 46.0 °F 44.4 °F 30.12 in Calm     94 % 0.00 in
06:39 45.9 °F 44.3 °F 30.11 in SE 1.2 mph 1.2 mph 94 % 0.00 in
06:54 45.5 °F 43.9 °F 30.11 in Calm     94 % 0.00 in
06:59 45.3 °F 43.7 °F 30.11 in Calm     94 % 0.00 in
07:09 45.1 °F 43.5 °F 30.12 in Calm     94 % 0.00 in
07:19 45.2 °F 43.9 °F 30.12 in Calm     95 % 0.00 in
07:24 45.7 °F 44.4 °F 30.12 in Calm     95 % 0.00 in
07:29 46.1 °F 44.7 °F 30.12 in Calm     95 % 0.00 in
07:34 46.7 °F 45.3 °F 30.12 in Calm     95 % 0.00 in
07:39 47.5 °F 46.4 °F 30.12 in Calm     96 % 0.00 in
07:49 49.3 °F 47.9 °F 30.13 in Calm     95 % 0.00 in
07:54 49.7 °F 48.0 °F 30.13 in Calm     94 % 0.00 in
08:04 50.9 °F 48.7 °F 30.14 in Calm     92 % 0.00 in
08:09 51.5 °F 49.0 °F 30.14 in Calm   0.1 mph 91 % 0.00 in
08:14 52.1 °F 49.6 °F 30.15 in Calm     91 % 0.00 in
08:24 52.9 °F 49.7 °F 30.16 in Calm     89 % 0.00 in
08:30 53.0 °F 49.8 °F 30.16 in Calm     89 % 0.00 in
08:40 53.4 °F 49.6 °F 30.17 in Calm     87 % 0.00 in
08:50 54.1 °F 50.0 °F 30.17 in SE 1.2 mph   86 % 0.00 in
09:00 54.8 °F 50.7 °F 30.17 in Calm     86 % 0.00 in
09:15 55.7 °F 50.9 °F 30.17 in SSE 1.2 mph 1.2 mph 84 % 0.00 in
09:25 56.5 °F 51.1 °F 30.17 in ESE 3.5 mph 3.5 mph 82 % 0.00 in
09:35 56.9 °F 51.1 °F 30.17 in East 1.2 mph 1.2 mph 81 % 0.00 in
09:40 57.3 °F 51.5 °F 30.16 in SSE 1.2 mph 1.2 mph 81 % 0.00 in
09:45 57.6 °F 51.1 °F 30.15 in ESE 1.0 mph   79 % 0.00 in
09:50 58.0 °F 51.2 °F 30.15 in SE 1.2 mph 1.2 mph 78 % 0.00 in
09:55 58.4 °F 51.6 °F 30.15 in SSE 1.2 mph 1.2 mph 78 % 0.00 in
10:05 59.5 °F 51.6 °F 30.14 in SE 1.2 mph 1.2 mph 75 % 0.00 in
10:10 59.9 °F 51.6 °F 30.13 in South 1.2 mph 1.2 mph 74 % 0.00 in
10:15 60.4 °F 52.1 °F 30.12 in ESE 1.2 mph 1.2 mph 74 % 0.00 in
10:20 61.1 °F 52.0 °F 30.12 in ESE 1.2 mph 1.2 mph 72 % 0.00 in
10:25 61.4 °F 51.5 °F 30.12 in Calm     70 % 0.00 in
10:30 61.8 °F 52.3 °F 30.13 in Calm   0.1 mph 71 % 0.00 in
10:35 62.2 °F 51.9 °F 30.13 in Calm     69 % 0.00 in
10:40 62.8 °F 52.5 °F 30.12 in SSW 2.3 mph 2.3 mph 69 % 0.00 in
10:45 63.1 °F 52.4 °F 30.13 in SE 3.5 mph 3.5 mph 68 % 0.00 in
10:50 63.7 °F 52.5 °F 30.13 in East 2.0 mph 2.0 mph 67 % 0.00 in
10:55 63.7 °F 51.3 °F 30.13 in SE 2.0 mph 2.0 mph 64 % 0.00 in
11:01 63.7 °F 51.3 °F 30.13 in NNW 2.3 mph 2.3 mph 64 % 0.00 in
11:11 63.9 °F 51.5 °F 30.13 in NNW 1.2 mph 1.2 mph 64 % 0.00 in
11:16 64.1 °F 52.5 °F 30.13 in NW 1.2 mph 1.2 mph 66 % 0.00 in
11:21 64.5 °F 52.0 °F 30.14 in Calm     64 % 0.00 in
11:26 64.9 °F 52.0 °F 30.14 in South 1.2 mph 1.2 mph 63 % 0.00 in
11:31 65.1 °F 52.6 °F 30.14 in NNW 2.3 mph 2.3 mph 64 % 0.00 in
11:41 65.5 °F 52.1 °F 30.13 in Calm     62 % 0.00 in
11:46 65.3 °F 51.1 °F 30.13 in Calm     60 % 0.00 in
11:51 65.2 °F 51.4 °F 30.13 in South 1.2 mph 1.2 mph 61 % 0.00 in
11:56 65.8 °F 51.5 °F 30.12 in SE 1.2 mph 1.2 mph 60 % 0.00 in
12:06 65.9 °F 50.2 °F 30.13 in East 1.2 mph   57 % 0.00 in
12:11 66.2 °F 50.5 °F 30.13 in Calm     57 % 0.00 in
12:16 66.4 °F 52.1 °F 30.12 in SSE 1.2 mph   60 % 0.00 in
12:21 66.7 °F 51.5 °F 30.12 in ESE 1.2 mph 1.2 mph 58 % 0.00 in
12:26 66.6 °F 51.4 °F 30.12 in Calm     58 % 0.00 in
12:31 66.4 °F 51.6 °F 30.12 in NW 2.0 mph 2.0 mph 59 % 0.00 in
12:36 66.1 °F 50.9 °F 30.11 in Calm     58 % 0.00 in
12:56 66.5 °F 52.2 °F 30.11 in Calm   0.2 mph 60 % 0.00 in
13:01 66.7 °F 50.5 °F 30.11 in NW 1.2 mph   56 % 0.00 in
13:06 66.8 °F 51.1 °F 30.12 in SSW 1.2 mph 1.2 mph 57 % 0.00 in
13:16 67.2 °F 51.0 °F 30.12 in WNW 3.5 mph 3.5 mph 56 % 0.00 in
13:26 67.4 °F 52.1 °F 30.12 in NE 1.2 mph 1.2 mph 58 % 0.00 in
13:31 68.1 °F 51.3 °F 30.12 in WNW 1.2 mph 1.2 mph 55 % 0.00 in
13:41 68.0 °F 50.2 °F 30.12 in WNW 1.2 mph 1.2 mph 53 % 0.00 in
13:51 68.1 °F 49.3 °F 30.12 in SW 1.2 mph 1.2 mph 51 % 0.00 in
13:52 68.1 °F 49.3 °F 30.11 in SE 1.2 mph 1.2 mph 51 % 0.00 in
13:57 68.5 °F 50.2 °F 30.11 in SE 1.2 mph 1.2 mph 52 % 0.00 in
14:02 68.6 °F 50.8 °F 30.12 in Calm     53 % 0.00 in
14:07 68.4 °F 49.0 °F 30.11 in SSE 1.2 mph 1.2 mph 50 % 0.00 in
14:17 67.8 °F 50.0 °F 30.11 in Calm     53 % 0.00 in
14:22 68.1 °F 49.8 °F 30.10 in Calm     52 % 0.00 in
14:27 68.3 °F 49.5 °F 30.10 in SSE 1.2 mph   51 % 0.00 in
14:32 68.2 °F 49.4 °F 30.09 in Calm     51 % 0.00 in
14:37 68.2 °F 50.4 °F 30.10 in Calm     53 % 0.00 in
14:42 68.2 °F 49.9 °F 30.10 in SE 1.2 mph 1.2 mph 52 % 0.00 in
14:47 68.1 °F 49.8 °F 30.10 in SE 1.2 mph   52 % 0.00 in
14:52 67.9 °F 49.1 °F 30.10 in SSE 1.2 mph 1.2 mph 51 % 0.00 in
14:57 67.8 °F 49.5 °F 30.10 in Calm     52 % 0.00 in
15:02 67.8 °F 49.5 °F 30.10 in Calm     52 % 0.00 in
15:17 67.5 °F 48.7 °F 30.10 in Calm     51 % 0.00 in
15:22 67.4 °F 49.2 °F 30.10 in Calm     52 % 0.00 in
15:27 67.3 °F 49.6 °F 30.10 in Calm     53 % 0.00 in
15:32 67.1 °F 48.9 °F 30.10 in Calm   0.2 mph 52 % 0.00 in
15:37 66.9 °F 49.2 °F 30.10 in Calm     53 % 0.00 in
15:42 66.7 °F 48.5 °F 30.10 in Calm     52 % 0.00 in
15:47 66.6 °F 48.9 °F 30.10 in South 1.2 mph   53 % 0.00 in
15:53 66.4 °F 49.2 °F 30.10 in Calm     54 % 0.00 in
15:58 66.2 °F 49.1 °F 30.11 in Calm     54 % 0.00 in
16:03 66.0 °F 48.9 °F 30.10 in Calm     54 % 0.00 in
16:13 65.4 °F 48.8 °F 30.10 in Calm     55 % 0.00 in
16:18 65.0 °F 48.9 °F 30.10 in Calm     56 % 0.00 in
16:23 64.6 °F 49.9 °F 30.10 in Calm     59 % 0.00 in
16:28 64.0 °F 50.3 °F 30.11 in Calm     61 % 0.00 in
16:29 63.8 °F 50.1 °F 30.11 in Calm     61 % 0.00 in
16:30 63.6 °F 49.9 °F 30.11 in Calm     61 % 0.00 in
16:36 63.1 °F 50.7 °F 30.11 in Calm     64 % 0.00 in
16:41 62.6 °F 50.7 °F 30.11 in Calm     65 % 0.00 in
16:51 61.6 °F 50.5 °F 30.12 in Calm     67 % 0.00 in
16:56 61.1 °F 50.8 °F 30.12 in Calm     69 % 0.00 in
17:01 60.7 °F 50.5 °F 30.12 in Calm     69 % 0.00 in
17:21 59.5 °F 50.1 °F 30.12 in Calm     71 % 0.00 in
17:26 59.3 °F 50.3 °F 30.13 in Calm     72 % 0.00 in
17:31 59.2 °F 50.2 °F 30.13 in Calm     72 % 0.00 in
17:36 59.1 °F 50.1 °F 30.13 in Calm     72 % 0.00 in
17:41 58.9 °F 50.3 °F 30.13 in Calm     73 % 0.00 in
17:46 58.6 °F 50.0 °F 30.13 in Calm     73 % 0.00 in
17:56 58.6 °F 50.3 °F 30.14 in Calm     74 % 0.00 in
18:01 58.5 °F 50.2 °F 30.14 in Calm     74 % 0.00 in
18:06 58.6 °F 50.3 °F 30.13 in Calm     74 % 0.00 in
18:11 58.5 °F 50.2 °F 30.14 in Calm     74 % 0.00 in
18:16 58.5 °F 50.2 °F 30.14 in Calm     74 % 0.00 in
18:21 58.5 °F 50.6 °F 30.13 in Calm     75 % 0.00 in
18:26 58.5 °F 50.2 °F 30.14 in Calm     74 % 0.00 in
18:31 58.3 °F 50.4 °F 30.13 in Calm     75 % 0.00 in
18:36 57.9 °F 50.7 °F 30.14 in Calm     77 % 0.00 in
18:41 57.5 °F 50.3 °F 30.14 in Calm     77 % 0.00 in
18:47 57.2 °F 50.7 °F 30.13 in Calm     79 % 0.00 in
18:52 56.8 °F 50.4 °F 30.13 in Calm     79 % 0.00 in
18:57 56.5 °F 50.1 °F 30.14 in Calm     79 % 0.00 in
19:02 56.3 °F 50.2 °F 30.13 in Calm     80 % 0.00 in
19:13 55.6 °F 49.9 °F 30.13 in Calm     81 % 0.00 in
19:18 55.4 °F 49.7 °F 30.13 in Calm     81 % 0.00 in
19:21 55.3 °F 49.6 °F 30.13 in Calm     81 % 0.00 in
19:24 55.3 °F 49.6 °F 30.13 in Calm     81 % 0.00 in
19:26 55.3 °F 49.6 °F 30.13 in Calm     81 % 0.00 in
19:32 55.1 °F 49.7 °F 30.13 in Calm     82 % 0.00 in
19:36 54.5 °F 49.4 °F 30.13 in Calm     83 % 0.00 in
19:42 54.0 °F 49.3 °F 30.14 in Calm     84 % 0.00 in
19:47 53.7 °F 49.6 °F 30.14 in Calm     86 % 0.00 in
19:52 53.7 °F 49.6 °F 30.14 in Calm     86 % 0.00 in
19:57 53.6 °F 49.5 °F 30.13 in Calm     86 % 0.00 in
20:02 53.5 °F 49.7 °F 30.13 in Calm     87 % 0.00 in
20:07 53.4 °F 49.6 °F 30.13 in Calm     87 % 0.00 in
20:12 53.4 °F 49.6 °F 30.12 in Calm     87 % 0.00 in
20:17 53.4 °F 49.3 °F 30.12 in Calm     86 % 0.00 in
20:22 53.2 °F 49.4 °F 30.13 in Calm     87 % 0.00 in
20:27 53.0 °F 49.2 °F 30.13 in Calm     87 % 0.00 in
20:32 52.9 °F 49.1 °F 30.13 in Calm     87 % 0.00 in
20:37 52.7 °F 48.9 °F 30.13 in Calm     87 % 0.00 in
20:42 52.7 °F 49.2 °F 30.13 in Calm     88 % 0.00 in
20:47 52.6 °F 48.8 °F 30.13 in Calm     87 % 0.00 in
20:52 52.6 °F 49.1 °F 30.13 in Calm     88 % 0.00 in
20:57 52.5 °F 49.0 °F 30.13 in Calm     88 % 0.00 in
21:02 52.3 °F 48.9 °F 30.13 in Calm     88 % 0.00 in
21:07 52.1 °F 48.7 °F 30.14 in Calm     88 % 0.00 in
21:12 51.9 °F 48.5 °F 30.13 in Calm     88 % 0.00 in
21:22 51.7 °F 48.6 °F 30.14 in Calm     89 % 0.00 in
21:32 51.4 °F 48.3 °F 30.14 in Calm     89 % 0.00 in
21:42 51.4 °F 48.3 °F 30.14 in Calm     89 % 0.00 in
21:47 51.5 °F 48.4 °F 30.14 in Calm     89 % 0.00 in
21:52 51.6 °F 48.5 °F 30.14 in Calm     89 % 0.00 in
21:57 51.5 °F 48.1 °F 30.14 in Calm     88 % 0.00 in
22:02 51.5 °F 48.4 °F 30.14 in Calm     89 % 0.00 in
22:07 51.6 °F 48.5 °F 30.15 in Calm     89 % 0.00 in
22:12 51.6 °F 48.2 °F 30.15 in Calm     88 % 0.00 in
22:17 51.6 °F 48.2 °F 30.14 in Calm     88 % 0.00 in
22:32 51.3 °F 48.2 °F 30.14 in Calm     89 % 0.00 in
22:37 51.3 °F 48.5 °F 30.14 in Calm     90 % 0.00 in
22:42 51.5 °F 48.4 °F 30.14 in Calm     89 % 0.00 in
22:47 51.8 °F 48.7 °F 30.14 in Calm     89 % 0.00 in
22:52 52.0 °F 48.6 °F 30.14 in Calm     88 % 0.00 in
22:57 52.2 °F 48.8 °F 30.14 in Calm     88 % 0.00 in
23:02 52.2 °F 48.4 °F 30.14 in Calm     87 % 0.00 in
23:07 52.0 °F 48.3 °F 30.14 in Calm     87 % 0.00 in
23:12 51.7 °F 48.3 °F 30.13 in Calm     88 % 0.00 in
23:17 51.4 °F 48.0 °F 30.14 in Calm     88 % 0.00 in
23:23 51.8 °F 48.4 °F 30.14 in Calm     88 % 0.00 in
23:38 51.9 °F 48.2 °F 30.14 in Calm     87 % 0.00 in
23:43 51.8 °F 48.1 °F 30.14 in Calm     87 % 0.00 in
23:53 51.0 °F 47.6 °F 30.14 in Calm     88 % 0.00 in
23:58 51.0 °F 47.9 °F 30.14 in Calm     89 % 0.00 in
Park Place, Exeter, Tulare County, California, USA
Compliments of Weather Underground - 2.5 mb